Time;durP1;ratioP1;P1;durP2;ratioP2;P2;SDS_P1;SDS_P2;PMS_P1;PMS_P2;Temp;Humidity;BMP_temperature;BMP_pressure;BME280_temperature;BME280_humidity;BME280_pressure;Samples;Min_cycle;Max_cycle;Signal;HPM_P1;HPM_P2
2021/11/24 00:01:29;;;;;;;23.60;14.05;;;1.70;99.90;;;;;;5071631;28;20102;-73
2021/11/24 00:03:56;;;;;;;26.58;14.07;;;1.70;99.90;;;;;;5071925;28;20458;-73
2021/11/24 00:06:27;;;;;;;20.70;12.82;;;1.70;99.90;;;;;;5071806;28;20072;-74
2021/11/24 00:08:54;;;;;;;21.05;12.85;;;1.70;99.90;;;;;;5073212;28;20075;-73
2021/11/24 00:11:21;;;;;;;20.05;12.38;;;1.70;99.90;;;;;;5071312;28;20415;-73
2021/11/24 00:13:48;;;;;;;22.48;11.80;;;1.70;99.90;;;;;;5071652;28;20452;-73
2021/11/24 00:16:19;;;;;;;18.58;11.63;;;1.70;99.90;;;;;;5055704;28;20132;-73
2021/11/24 00:18:46;;;;;;;21.67;12.07;;;1.70;99.90;;;;;;5071540;28;20086;-73
2021/11/24 00:21:13;;;;;;;21.70;12.23;;;1.70;99.90;;;;;;5071313;28;20098;-73
2021/11/24 00:23:47;;;;;;;21.50;12.00;;;1.70;99.90;;;;;;5071838;28;20075;-73
2021/11/24 00:26:18;;;;;;;18.88;11.82;;;1.70;99.90;;;;;;5071630;28;20068;-73
2021/11/24 00:28:50;;;;;;;17.65;11.57;;;1.70;99.90;;;;;;5071336;28;20071;-73
2021/11/24 00:31:22;;;;;;;18.15;11.60;;;1.70;99.90;;;;;;5070868;28;20139;-73
2021/11/24 00:33:54;;;;;;;19.08;11.63;;;1.60;99.90;;;;;;5071192;28;20459;-73
2021/11/24 00:36:21;;;;;;;18.35;11.40;;;1.60;99.90;;;;;;5072409;28;20041;-73
2021/11/24 00:38:53;;;;;;;17.83;11.73;;;1.60;99.90;;;;;;5070974;28;20559;-73
2021/11/24 00:41:25;;;;;;;18.58;12.25;;;1.60;99.90;;;;;;5072105;28;20064;-74
2021/11/24 00:43:56;;;;;;;17.58;11.10;;;1.50;99.90;;;;;;5072337;28;20457;-73
2021/11/24 00:46:28;;;;;;;15.95;10.38;;;1.50;99.90;;;;;;5071340;28;20082;-73
2021/11/24 00:48:55;;;;;;;16.15;10.75;;;1.50;99.90;;;;;;5072056;28;20068;-73
2021/11/24 00:51:22;;;;;;;18.50;11.82;;;1.50;99.90;;;;;;5070595;28;20076;-73
2021/11/24 00:53:53;;;;;;;21.73;11.95;;;1.50;99.90;;;;;;5070936;28;20132;-73
2021/11/24 00:56:20;;;;;;;21.75;13.23;;;1.50;99.90;;;;;;5071133;28;20076;-73
2021/11/24 00:58:52;;;;;;;17.27;10.20;;;1.40;99.90;;;;;;5070867;28;20072;-73
2021/11/24 01:01:24;;;;;;;17.95;11.18;;;1.30;99.90;;;;;;5070444;28;20075;-73
2021/11/24 01:03:56;;;;;;;16.75;10.48;;;1.30;99.90;;;;;;5070732;28;20045;-73
2021/11/24 01:06:28;;;;;;;17.42;10.05;;;1.30;99.90;;;;;;5071978;28;20098;-73
2021/11/24 01:09:00;;;;;;;22.33;12.77;;;1.30;99.90;;;;;;5071908;28;20068;-73
2021/11/24 01:11:32;;;;;;;20.30;13.60;;;1.30;99.90;;;;;;5070269;28;20072;-73
2021/11/24 01:14:05;;;;;;;20.83;13.13;;;1.30;99.90;;;;;;5071763;28;20056;-73
2021/11/24 01:16:32;;;;;;;22.90;13.05;;;1.30;99.90;;;;;;5053870;28;20051;-73
2021/11/24 01:19:03;;;;;;;16.83;10.80;;;1.30;99.90;;;;;;5070577;28;20040;-73
2021/11/24 01:21:35;;;;;;;14.88;10.07;;;1.20;99.90;;;;;;5070150;28;20157;-73
2021/11/24 01:24:07;;;;;;;17.58;11.00;;;1.20;99.90;;;;;;5054643;28;20087;-73
2021/11/24 01:26:39;;;;;;;17.23;10.30;;;1.20;99.90;;;;;;5071682;28;20514;-74
2021/11/24 01:29:06;;;;;;;17.98;11.10;;;1.10;99.90;;;;;;5070288;28;20072;-73
2021/11/24 01:31:33;;;;;;;18.08;11.05;;;1.10;99.90;;;;;;5069834;28;20083;-74
2021/11/24 01:34:04;;;;;;;16.90;11.70;;;1.10;99.90;;;;;;5070347;28;20040;-73
2021/11/24 01:36:31;;;;;;;16.75;9.88;;;1.00;99.90;;;;;;5056935;28;20045;-73
2021/11/24 01:39:03;;;;;;;15.98;10.02;;;1.00;99.90;;;;;;5072646;28;20060;-73
2021/11/24 01:41:35;;;;;;;14.82;10.73;;;1.00;99.90;;;;;;5053972;28;20135;-73
2021/11/24 01:44:21;;;;;;;16.02;10.35;;;0.90;99.90;;;;;;5070301;28;20391;-73
2021/11/24 01:46:56;;;;;;;15.23;10.43;;;0.90;99.90;;;;;;5070384;28;20650;-73
2021/11/24 01:49:24;;;;;;;14.55;10.27;;;0.90;99.90;;;;;;5070709;28;20040;-73
2021/11/24 01:51:57;;;;;;;14.82;10.43;;;0.90;99.90;;;;;;5075196;28;20111;-73
2021/11/24 01:54:30;;;;;;;15.98;10.27;;;0.80;99.90;;;;;;5058484;28;20135;-74
2021/11/24 01:56:58;;;;;;;14.98;10.45;;;0.80;99.90;;;;;;5075522;28;20072;-74
2021/11/24 01:59:29;;;;;;;15.40;9.85;;;0.80;99.90;;;;;;5073925;28;20574;-73
2021/11/24 02:02:02;;;;;;;14.77;9.63;;;0.80;99.90;;;;;;5074728;28;20083;-73
2021/11/24 02:04:33;;;;;;;15.52;10.32;;;0.80;99.90;;;;;;5073978;28;20044;-73
2021/11/24 02:07:00;;;;;;;17.90;11.43;;;0.70;99.90;;;;;;5074041;28;20072;-73
2021/11/24 02:09:32;;;;;;;15.50;9.60;;;0.70;99.90;;;;;;5074114;28;20061;-73
2021/11/24 02:12:04;;;;;;;16.70;10.75;;;0.60;99.90;;;;;;5073918;28;20128;-74
2021/11/24 02:14:31;;;;;;;17.17;10.82;;;0.60;99.90;;;;;;5073867;28;20065;-73
2021/11/24 02:17:03;;;;;;;17.27;10.45;;;0.60;99.90;;;;;;5074143;28;20460;-73
2021/11/24 02:19:35;;;;;;;15.82;9.88;;;0.50;99.90;;;;;;5073987;28;20079;-74
2021/11/24 02:22:06;;;;;;;16.00;10.95;;;0.50;99.90;;;;;;5057763;28;20172;-73
2021/11/24 02:24:35;;;;;;;17.15;10.63;;;0.50;99.90;;;;;;5074707;28;20071;-73
2021/11/24 02:27:10;;;;;;;16.48;11.55;;;0.40;99.90;;;;;;5057309;28;20087;-73
2021/11/24 02:29:46;;;;;;;17.98;10.98;;;0.40;99.90;;;;;;5072830;28;20139;-73
2021/11/24 02:32:18;;;;;;;16.00;10.80;;;0.40;99.90;;;;;;5072951;28;20123;-73
2021/11/24 02:34:45;;;;;;;18.05;10.60;;;0.30;99.90;;;;;;5056629;28;20457;-74
2021/11/24 02:37:12;;;;;;;16.33;10.38;;;0.30;99.90;;;;;;5072960;28;20072;-73
2021/11/24 02:39:39;;;;;;;17.60;10.38;;;0.30;99.90;;;;;;5073941;28;20048;-74
2021/11/24 02:42:10;;;;;;;16.60;10.27;;;0.30;99.90;;;;;;5072589;28;20040;-73
2021/11/24 02:44:40;;;;;;;16.30;10.55;;;0.20;99.90;;;;;;5074538;28;20044;-73
2021/11/24 02:47:14;;;;;;;17.85;11.00;;;0.20;99.90;;;;;;5073388;28;20143;-73
2021/11/24 02:49:50;;;;;;;17.45;10.98;;;0.20;99.90;;;;;;5074284;28;20060;-73
2021/11/24 02:52:23;;;;;;;16.02;10.70;;;0.20;99.90;;;;;;5073675;28;20056;-73
2021/11/24 02:54:57;;;;;;;16.73;9.85;;;0.20;99.90;;;;;;5056658;28;20416;-74
2021/11/24 02:57:31;;;;;;;16.65;10.20;;;0.10;99.90;;;;;;5072474;28;20132;-74
2021/11/24 02:59:58;;;;;;;15.25;10.52;;;0.20;99.90;;;;;;5074170;28;20068;-73
2021/11/24 03:02:30;;;;;;;16.00;10.63;;;0.10;99.90;;;;;;5056189;28;20138;-73
2021/11/24 03:05:02;;;;;;;15.18;10.60;;;0.10;99.90;;;;;;5073030;28;20102;-73
2021/11/24 03:07:33;;;;;;;15.98;10.80;;;0.10;99.90;;;;;;5074159;28;20079;-73
2021/11/24 03:10:06;;;;;;;17.60;9.43;;;0.10;99.90;;;;;;5074271;28;20068;-73
2021/11/24 03:12:38;;;;;;;18.00;9.77;;;0.00;99.90;;;;;;5056647;28;20131;-73
2021/11/24 03:15:07;;;;;;;17.27;11.18;;;0.00;99.90;;;;;;5074132;28;20102;-74
2021/11/24 03:17:39;;;;;;;14.38;9.73;;;0.00;99.90;;;;;;5072796;28;20076;-74
2021/11/24 03:20:11;;;;;;;15.40;10.27;;;0.00;99.90;;;;;;5073043;28;20127;-74
2021/11/24 03:22:39;;;;;;;14.77;9.95;;;0.00;99.90;;;;;;5073692;28;20113;-73
2021/11/24 03:25:11;;;;;;;16.38;9.90;;;0.00;99.90;;;;;;5056875;28;20040;-73
2021/11/24 03:27:41;;;;;;;15.95;10.57;;;-0.10;99.90;;;;;;5072637;28;20045;-73
2021/11/24 03:30:22;;;;;;;13.73;8.82;;;-0.10;99.90;;;;;;5072677;28;20044;-74
2021/11/24 03:32:56;;;;;;;19.30;10.18;;;-0.20;99.90;;;;;;5073546;28;20132;-73
2021/11/24 03:35:40;;;;;;;17.90;11.20;;;-0.20;99.90;;;;;;5073781;28;20075;-74
2021/11/24 03:38:12;;;;;;;16.27;10.73;;;-0.20;99.90;;;;;;5072687;28;20051;-74
2021/11/24 03:40:39;;;;;;;20.33;12.07;;;-0.20;99.90;;;;;;5072191;28;20143;-74
2021/11/24 03:43:10;;;;;;;16.00;10.57;;;-0.20;99.90;;;;;;5072209;28;20491;-74
2021/11/24 03:45:38;;;;;;;18.65;10.68;;;-0.30;99.90;;;;;;5073413;28;20064;-73
2021/11/24 03:48:10;;;;;;;20.98;11.18;;;-0.30;99.90;;;;;;5072160;28;20140;-74
2021/11/24 03:50:42;;;;;;;17.50;10.45;;;-0.40;99.90;;;;;;5073247;28;20051;-73
2021/11/24 03:53:09;;;;;;;16.63;10.45;;;-0.30;99.90;;;;;;5072032;28;20068;-73
2021/11/24 03:55:36;;;;;;;16.65;10.50;;;-0.30;99.90;;;;;;5072190;28;20060;-73
2021/11/24 03:58:03;;;;;;;16.73;11.32;;;-0.30;99.90;;;;;;5072068;28;20127;-73
2021/11/24 04:00:36;;;;;;;16.60;11.13;;;-0.30;99.90;;;;;;5073086;28;20213;-73
2021/11/24 04:03:08;;;;;;;19.40;11.85;;;-0.30;99.90;;;;;;5071758;28;20127;-73
2021/11/24 04:05:39;;;;;;;17.02;10.60;;;-0.30;99.90;;;;;;5073279;28;20128;-74
2021/11/24 04:08:06;;;;;;;17.27;11.05;;;-0.30;99.90;;;;;;5071722;28;20045;-73
2021/11/24 04:10:38;;;;;;;16.75;11.60;;;-0.30;99.90;;;;;;5072828;28;20052;-73
2021/11/24 04:13:05;;;;;;;17.30;11.90;;;-0.30;99.90;;;;;;5070902;28;20068;-73
2021/11/24 04:15:31;;;;;;;16.15;10.52;;;-0.30;99.90;;;;;;5055360;28;20077;-73
2021/11/24 04:17:58;;;;;;;20.50;11.60;;;-0.30;99.90;;;;;;5058986;28;20436;-74
2021/11/24 04:20:30;;;;;;;18.20;10.65;;;-0.30;99.90;;;;;;5035107;28;20053;-74
2021/11/24 04:22:57;;;;;;;16.10;10.05;;;-0.30;99.90;;;;;;5038478;28;20200;-74
2021/11/24 04:25:28;;;;;;;20.13;11.57;;;-0.30;99.90;;;;;;5037331;28;20128;-74
2021/11/24 04:28:00;;;;;;;19.75;11.98;;;-0.30;99.90;;;;;;5032674;28;20109;-73
2021/11/24 04:30:27;;;;;;;18.40;12.85;;;-0.30;99.90;;;;;;5045024;28;20492;-74
2021/11/24 04:32:59;;;;;;;18.23;11.27;;;-0.30;99.90;;;;;;5029607;28;20145;-75
2021/11/24 04:35:31;;;;;;;40.05;19.30;;;-0.20;99.90;;;;;;5047234;28;20112;-78
2021/11/24 04:37:58;;;;;;;28.52;17.10;;;-0.20;99.90;;;;;;5050557;28;20052;-74
2021/11/24 04:40:29;;;;;;;55.42;28.75;;;-0.20;99.90;;;;;;5050642;28;20598;-73
2021/11/24 04:43:04;;;;;;;29.00;17.40;;;-0.20;99.90;;;;;;5048461;28;20049;-73
2021/11/24 04:45:36;;;;;;;28.30;17.98;;;-0.30;99.90;;;;;;5035619;28;20069;-73
2021/11/24 04:48:03;;;;;;;33.28;23.17;;;0.20;99.90;;;;;;5033980;28;20094;-73
2021/11/24 04:50:30;;;;;;;44.92;27.88;;;0.30;99.90;;;;;;5050027;28;20145;-73
2021/11/24 04:53:02;;;;;;;56.38;33.95;;;0.20;99.90;;;;;;5051343;28;20041;-73
2021/11/24 04:55:31;;;;;;;112.78;58.17;;;0.20;99.90;;;;;;5050341;28;20128;-74
2021/11/24 04:57:58;;;;;;;33.33;19.48;;;0.10;99.90;;;;;;5031934;28;20091;-74
2021/11/24 05:00:30;;;;;;;23.38;13.77;;;0.10;99.90;;;;;;5051356;28;20037;-73
2021/11/24 05:03:01;;;;;;;19.85;12.82;;;0.10;99.90;;;;;;5050058;28;20120;-74
2021/11/24 05:05:33;;;;;;;21.70;13.75;;;0.10;99.90;;;;;;5050040;28;20132;-73
2021/11/24 05:08:02;;;;;;;24.42;15.18;;;0.00;99.90;;;;;;5050110;28;20131;-73
2021/11/24 05:10:34;;;;;;;25.35;15.95;;;0.00;99.90;;;;;;5051323;28;20118;-74
2021/11/24 05:13:07;;;;;;;27.65;15.02;;;0.00;99.90;;;;;;5049856;28;20411;-76
2021/11/24 05:15:41;;;;;;;25.23;15.48;;;0.00;99.90;;;;;;5048215;28;20481;-73
2021/11/24 05:18:21;;;;;;;28.40;16.13;;;0.00;99.90;;;;;;5071540;28;20052;-74
2021/11/24 05:20:55;;;;;;;24.35;13.95;;;0.00;99.90;;;;;;5069011;28;20048;-73
2021/11/24 05:23:24;;;;;;;29.25;15.20;;;0.10;99.90;;;;;;5068536;28;20135;-73
2021/11/24 05:25:50;;;;;;;31.52;16.13;;;0.10;99.90;;;;;;5065046;28;20156;-73
2021/11/24 05:28:17;;;;;;;31.38;16.50;;;0.10;99.90;;;;;;5045336;28;20076;-73
2021/11/24 05:30:49;;;;;;;27.48;15.48;;;0.10;99.90;;;;;;5047930;28;20407;-74
2021/11/24 05:33:21;;;;;;;33.70;17.30;;;0.10;99.90;;;;;;5040336;28;20136;-73
2021/11/24 05:35:53;;;;;;;33.95;16.83;;;0.00;99.90;;;;;;5046904;28;20123;-73
2021/11/24 05:38:20;;;;;;;28.48;16.10;;;0.00;99.90;;;;;;5041736;28;20403;-74
2021/11/24 05:40:52;;;;;;;33.50;16.50;;;0.10;99.90;;;;;;5020283;28;20127;-73
2021/11/24 05:43:27;;;;;;;42.78;19.08;;;0.00;99.90;;;;;;5041743;28;20120;-73
2021/11/24 05:48:25;;;;;;;37.22;18.73;;;0.10;99.90;;;;;;5049286;28;20053;-73
2021/11/24 05:50:53;;;;;;;38.55;18.80;;;0.30;99.90;;;;;;5048785;28;20124;-74
2021/11/24 05:53:25;;;;;;;43.92;19.92;;;0.30;99.90;;;;;;5048643;28;20065;-74
2021/11/24 05:55:51;;;;;;;42.83;20.48;;;0.20;99.90;;;;;;5048975;28;20071;-74
2021/11/24 05:58:18;;;;;;;37.25;19.05;;;0.20;99.90;;;;;;5048912;28;20079;-73
2021/11/24 06:00:46;;;;;;;36.05;18.98;;;0.20;99.90;;;;;;5048740;28;20143;-73
2021/11/24 06:03:17;;;;;;;44.38;19.15;;;0.20;99.90;;;;;;5048731;28;20422;-73
2021/11/24 06:05:45;;;;;;;42.33;20.75;;;0.20;99.90;;;;;;5048732;28;20139;-73
2021/11/24 06:08:12;;;;;;;39.63;19.27;;;0.20;99.90;;;;;;5049013;28;20083;-74
2021/11/24 06:10:44;;;;;;;40.90;20.73;;;0.20;99.90;;;;;;5048544;28;20575;-73
2021/11/24 06:13:16;;;;;;;41.42;20.33;;;0.20;99.90;;;;;;5048561;28;20127;-73
2021/11/24 06:15:48;;;;;;;40.17;19.98;;;0.10;99.90;;;;;;5049054;28;20139;-73
2021/11/24 06:18:20;;;;;;;37.92;18.23;;;0.10;99.90;;;;;;5032747;28;20120;-73
2021/11/24 06:20:48;;;;;;;40.72;18.42;;;0.10;99.90;;;;;;5049150;28;20116;-73
2021/11/24 06:23:19;;;;;;;39.78;20.52;;;0.20;99.90;;;;;;5032629;28;20482;-73
2021/11/24 06:25:51;;;;;;;36.47;19.33;;;0.10;99.90;;;;;;5050016;28;20136;-73
2021/11/24 06:28:18;;;;;;;45.03;19.38;;;0.10;99.90;;;;;;5048638;28;20490;-74
2021/11/24 06:30:50;;;;;;;51.75;24.80;;;0.10;99.90;;;;;;5032590;28;20045;-73
2021/11/24 06:33:22;;;;;;;58.53;28.52;;;0.10;99.90;;;;;;5048880;28;20037;-73
2021/11/24 06:35:54;;;;;;;50.92;25.52;;;0.10;99.90;;;;;;5050377;28;20460;-73
2021/11/24 06:38:22;;;;;;;44.55;21.08;;;0.10;99.90;;;;;;5052448;28;20075;-73
2021/11/24 06:40:54;;;;;;;45.20;22.13;;;0.10;99.90;;;;;;5054087;28;20136;-73
2021/11/24 06:43:26;;;;;;;40.60;20.40;;;0.10;99.90;;;;;;5051335;28;20127;-74
2021/11/24 06:45:58;;;;;;;42.25;21.23;;;0.10;99.90;;;;;;5053121;28;20459;-73
2021/11/24 06:48:31;;;;;;;40.85;20.00;;;0.10;99.90;;;;;;5052542;28;20128;-74
2021/11/24 06:51:03;;;;;;;41.38;20.23;;;0.10;99.90;;;;;;5052573;28;20041;-74
2021/11/24 06:53:30;;;;;;;41.10;20.85;;;0.10;99.90;;;;;;5052104;28;20049;-74
2021/11/24 06:56:02;;;;;;;41.00;19.60;;;0.10;99.90;;;;;;5052442;28;20091;-73
2021/11/24 06:58:29;;;;;;;40.22;19.70;;;0.10;99.90;;;;;;5052078;28;20148;-74
2021/11/24 07:01:02;;;;;;;39.88;20.35;;;0.10;99.90;;;;;;5052093;28;20410;-73
2021/11/24 07:03:29;;;;;;;44.25;19.10;;;0.10;99.90;;;;;;5051642;28;20071;-73
2021/11/24 07:06:01;;;;;;;44.57;19.77;;;0.10;99.90;;;;;;5052170;28;20080;-73
2021/11/24 07:08:33;;;;;;;40.90;18.90;;;0.10;99.90;;;;;;5036092;28;20045;-74
2021/11/24 07:11:05;;;;;;;46.17;20.75;;;0.10;99.90;;;;;;5052014;28;20114;-74
2021/11/24 07:13:36;;;;;;;47.20;22.40;;;0.20;99.90;;;;;;5051604;28;20132;-74
2021/11/24 07:16:08;;;;;;;41.15;19.88;;;0.20;99.90;;;;;;5052296;28;20078;-74
2021/11/24 07:18:40;;;;;;;39.70;19.13;;;0.20;99.90;;;;;;5056308;28;20155;-73
2021/11/24 07:21:07;;;;;;;37.20;18.67;;;0.20;99.90;;;;;;5054458;28;20065;-74
2021/11/24 07:23:39;;;;;;;38.42;21.13;;;0.30;99.90;;;;;;5051654;28;20040;-74
2021/11/24 07:26:11;;;;;;;39.50;20.05;;;0.20;99.90;;;;;;5052405;28;20049;-74
2021/11/24 07:28:43;;;;;;;33.95;18.33;;;0.30;99.90;;;;;;5052448;28;20533;-74
2021/11/24 07:31:15;;;;;;;35.65;17.75;;;0.30;99.90;;;;;;5051839;28;20116;-74
2021/11/24 07:33:48;;;;;;;33.38;18.48;;;0.30;99.90;;;;;;5052317;28;20123;-74
2021/11/24 07:36:21;;;;;;;35.08;17.38;;;0.30;99.90;;;;;;5035257;28;20123;-74
2021/11/24 07:38:53;;;;;;;33.20;16.38;;;0.30;99.90;;;;;;5051645;28;20503;-74
2021/11/24 07:41:25;;;;;;;34.05;17.95;;;0.30;99.90;;;;;;5052801;28;20136;-74
2021/11/24 07:43:56;;;;;;;33.45;15.88;;;0.30;99.90;;;;;;5052939;28;20407;-73
2021/11/24 07:46:24;;;;;;;29.20;15.57;;;0.20;99.90;;;;;;5051474;28;20148;-74
2021/11/24 07:48:57;;;;;;;34.42;16.83;;;0.30;99.90;;;;;;5050890;28;20478;-74
2021/11/24 07:51:29;;;;;;;32.65;17.75;;;0.30;99.90;;;;;;5051222;28;20140;-74
2021/11/24 07:54:01;;;;;;;29.38;16.27;;;0.30;99.90;;;;;;5051530;28;20566;-74
2021/11/24 07:56:33;;;;;;;33.58;17.27;;;0.30;99.90;;;;;;5051696;28;20589;-73
2021/11/24 07:59:05;;;;;;;34.78;17.58;;;0.30;99.90;;;;;;5051316;28;20099;-74
2021/11/24 08:01:31;;;;;;;33.45;17.77;;;0.30;99.90;;;;;;5052441;28;20116;-74
2021/11/24 08:04:03;;;;;;;37.80;17.35;;;0.30;99.90;;;;;;5052659;28;20518;-74
2021/11/24 08:06:35;;;;;;;37.20;21.33;;;0.30;99.90;;;;;;5051224;28;20059;-73
2021/11/24 08:09:04;;;;;;;38.85;21.08;;;0.30;99.90;;;;;;5051398;28;20141;-74
2021/11/24 08:11:31;;;;;;;36.65;19.58;;;0.30;99.90;;;;;;5050971;28;20087;-74
2021/11/24 08:14:03;;;;;;;43.08;21.48;;;0.30;99.90;;;;;;5052430;28;20116;-73
2021/11/24 08:16:34;;;;;;;34.80;19.23;;;0.40;99.90;;;;;;5051046;28;20037;-74
2021/11/24 08:19:01;;;;;;;40.92;19.00;;;0.30;99.90;;;;;;5034830;28;20045;-73
2021/11/24 08:21:33;;;;;;;41.50;19.88;;;0.30;99.90;;;;;;5052071;28;20051;-74
2021/11/24 08:24:05;;;;;;;74.97;43.70;;;0.40;99.90;;;;;;5052578;28;20543;-74
2021/11/24 08:26:32;;;;;;;48.63;24.20;;;0.40;99.90;;;;;;5051110;28;20091;-73
2021/11/24 08:29:04;;;;;;;43.30;24.65;;;0.40;99.90;;;;;;5051514;28;20558;-74
2021/11/24 08:31:39;;;;;;;51.70;26.88;;;0.30;99.90;;;;;;5055359;28;20535;-72
2021/11/24 08:34:12;;;;;;;52.08;29.15;;;0.30;99.90;;;;;;5063624;28;20127;-72
2021/11/24 08:36:41;;;;;;;47.67;22.08;;;0.40;99.90;;;;;;5057262;28;20040;-73
2021/11/24 08:39:14;;;;;;;45.60;22.70;;;0.30;99.90;;;;;;5069688;28;20116;-73
2021/11/24 08:41:40;;;;;;;42.83;20.55;;;0.30;99.90;;;;;;5058567;28;20084;-73
2021/11/24 08:44:07;;;;;;;51.28;28.67;;;0.40;99.90;;;;;;5061505;28;20072;-73
2021/11/24 08:46:39;;;;;;;51.13;24.13;;;0.40;99.90;;;;;;5066321;28;20595;-73
2021/11/24 08:49:12;;;;;;;47.75;22.17;;;0.50;99.90;;;;;;5053630;28;20064;-73
2021/11/24 08:51:44;;;;;;;56.95;29.27;;;0.50;99.90;;;;;;5063643;28;20051;-74
2021/11/24 08:54:15;;;;;;;52.47;31.67;;;0.50;99.90;;;;;;5046730;28;20143;-74
2021/11/24 08:56:43;;;;;;;52.72;31.92;;;0.60;99.90;;;;;;5055103;28;20476;-74
2021/11/24 08:59:15;;;;;;;46.13;24.90;;;0.60;99.90;;;;;;5035144;28;20128;-73
2021/11/24 09:01:42;;;;;;;55.35;27.00;;;0.60;99.90;;;;;;5050782;28;20526;-74
2021/11/24 09:04:14;;;;;;;38.15;22.77;;;0.60;99.90;;;;;;5035113;28;20140;-74
2021/11/24 09:06:40;;;;;;;46.08;21.25;;;0.60;99.90;;;;;;5050924;28;20088;-74
2021/11/24 09:09:12;;;;;;;42.13;21.95;;;0.60;99.90;;;;;;5055434;28;20156;-74
2021/11/24 09:11:44;;;;;;;36.67;17.92;;;0.60;99.90;;;;;;5053763;28;20047;-73
2021/11/24 09:14:16;;;;;;;42.33;20.27;;;0.60;99.90;;;;;;5040957;28;20044;-73
2021/11/24 09:16:43;;;;;;;41.95;19.05;;;0.50;99.90;;;;;;5035390;28;20060;-73
2021/11/24 09:19:09;;;;;;;39.53;19.63;;;0.60;99.90;;;;;;5049931;28;20547;-73
2021/11/24 09:21:41;;;;;;;37.78;18.85;;;0.60;99.90;;;;;;5049035;28;20495;-73
2021/11/24 09:24:16;;;;;;;33.70;17.75;;;0.70;99.90;;;;;;5067646;28;20384;-73
2021/11/24 09:26:53;;;;;;;38.17;18.27;;;0.70;99.90;;;;;;5041234;28;20117;-74
2021/11/24 09:29:21;;;;;;;32.70;15.65;;;0.80;99.90;;;;;;5030239;28;20048;-73
2021/11/24 09:31:47;;;;;;;31.30;14.95;;;0.70;99.90;;;;;;5029645;28;20072;-73
2021/11/24 09:34:14;;;;;;;27.05;14.15;;;0.80;99.90;;;;;;5013591;28;20140;-73
2021/11/24 09:36:46;;;;;;;28.65;13.00;;;0.80;99.90;;;;;;5029571;28;20128;-73
2021/11/24 09:39:18;;;;;;;26.42;13.10;;;0.70;99.90;;;;;;5032192;28;20025;-73
2021/11/24 09:41:52;;;;;;;35.38;15.98;;;0.70;99.90;;;;;;5033311;28;20055;-73
2021/11/24 09:44:23;;;;;;;;;;;0.70;99.90;;;;;;5034047;28;20413;-73
2021/11/24 09:46:51;;;;;;;46.30;15.73;;;0.80;99.90;;;;;;5032202;28;20028;-74
2021/11/24 09:49:23;;;;;;;29.75;15.57;;;0.80;99.90;;;;;;5034005;28;20183;-73
2021/11/24 09:51:51;;;;;;;28.65;14.07;;;0.80;99.90;;;;;;5049549;28;20083;-73
2021/11/24 09:54:23;;;;;;;34.95;15.50;;;0.90;99.90;;;;;;5050095;28;20037;-73
2021/11/24 09:56:56;;;;;;;37.38;15.55;;;0.90;99.90;;;;;;5050278;28;20051;-73
2021/11/24 09:59:28;;;;;;;33.58;14.65;;;0.80;99.90;;;;;;5050112;28;20406;-73
2021/11/24 10:02:00;;;;;;;33.50;14.98;;;0.80;99.90;;;;;;5051008;28;20045;-73
2021/11/24 10:04:32;;;;;;;31.02;14.27;;;0.80;99.90;;;;;;5050287;28;20052;-73
2021/11/24 10:06:59;;;;;;;32.53;13.38;;;0.80;99.90;;;;;;5053107;28;20049;-73
2021/11/24 10:09:26;;;;;;;32.00;14.98;;;0.80;99.90;;;;;;5053128;28;20048;-73
2021/11/24 10:11:53;;;;;;;30.60;14.80;;;0.90;99.90;;;;;;5051110;28;20041;-73
2021/11/24 10:14:20;;;;;;;27.88;13.32;;;0.80;99.90;;;;;;5054136;28;20045;-73
2021/11/24 10:16:46;;;;;;;31.73;14.70;;;0.80;99.90;;;;;;5053787;28;20450;-73
2021/11/24 10:19:14;;;;;;;31.40;14.50;;;0.90;99.90;;;;;;5053410;28;20073;-72
2021/11/24 10:22:00;;;;;;;31.85;14.98;;;0.90;99.90;;;;;;5053098;28;20059;-73
2021/11/24 10:24:42;;;;;;;29.80;13.70;;;0.90;99.90;;;;;;5036715;28;20540;-74
2021/11/24 10:27:12;;;;;;;29.30;13.85;;;1.00;99.90;;;;;;5037006;28;20094;-73
2021/11/24 10:29:54;;;;;;;30.17;15.10;;;1.00;99.90;;;;;;5052855;28;20406;-73
2021/11/24 10:32:27;;;;;;;31.08;14.93;;;1.00;99.90;;;;;;5052381;28;20507;-73
2021/11/24 10:34:56;;;;;;;27.10;13.68;;;1.00;99.90;;;;;;5052503;28;20073;-73
2021/11/24 10:37:28;;;;;;;28.80;14.77;;;1.00;99.90;;;;;;5045594;28;20112;-73
2021/11/24 10:39:58;;;;;;;28.60;13.00;;;1.00;99.90;;;;;;5015692;28;20079;-74
2021/11/24 10:42:32;;;;;;;26.25;13.52;;;1.00;99.90;;;;;;5016823;28;20041;-73
2021/11/24 10:45:17;;;;;;;28.90;11.32;;;1.10;99.90;;;;;;5032928;28;20460;-73
2021/11/24 10:47:54;;;;;;;22.05;11.57;;;1.10;99.90;;;;;;5032928;28;20107;-73
2021/11/24 10:50:28;;;;;;;23.73;10.88;;;1.20;99.90;;;;;;5032703;28;20055;-74
2021/11/24 10:53:00;;;;;;;24.23;12.10;;;1.20;99.90;;;;;;5032671;28;20033;-73
2021/11/24 10:55:30;;;;;;;24.58;12.35;;;1.20;99.90;;;;;;5032955;28;20045;-73
2021/11/24 10:58:09;;;;;;;25.48;11.68;;;1.20;99.90;;;;;;5032834;28;20116;-73
2021/11/24 11:00:47;;;;;;;25.55;12.55;;;1.20;99.90;;;;;;5032810;28;20137;-74
2021/11/24 11:03:21;;;;;;;27.52;13.35;;;1.20;99.90;;;;;;5032374;28;20550;-73
2021/11/24 11:05:53;;;;;;;25.42;11.70;;;1.20;99.90;;;;;;5034140;28;20095;-73
2021/11/24 11:08:22;;;;;;;26.33;13.10;;;1.20;99.90;;;;;;5032517;28;20041;-73
2021/11/24 11:10:49;;;;;;;24.85;12.50;;;1.20;99.90;;;;;;5032870;28;20103;-73
2021/11/24 11:13:19;;;;;;;25.90;13.48;;;1.10;99.90;;;;;;5032301;28;20566;-73
2021/11/24 11:15:55;;;;;;;37.50;17.15;;;1.10;99.90;;;;;;5017322;28;20041;-73
2021/11/24 11:18:32;;;;;;;34.92;14.77;;;1.10;99.90;;;;;;5019084;28;20072;-73
2021/11/24 11:21:08;;;;;;;27.08;14.00;;;1.10;99.90;;;;;;5052580;28;20140;-74
2021/11/24 11:23:43;;;;;;;25.60;12.48;;;1.10;99.90;;;;;;5035302;28;20131;-73
2021/11/24 11:26:19;;;;;;;29.83;14.00;;;1.10;99.90;;;;;;5052724;28;20547;-73
2021/11/24 11:28:49;;;;;;;27.02;13.38;;;1.10;99.90;;;;;;5036346;28;20045;-73
2021/11/24 11:31:24;;;;;;;30.08;14.88;;;1.10;99.90;;;;;;5053387;28;20037;-73
2021/11/24 11:33:55;;;;;;;26.85;13.60;;;1.10;99.90;;;;;;5052211;28;20115;-73
2021/11/24 11:36:27;;;;;;;27.85;14.38;;;1.10;99.90;;;;;;5052698;28;20452;-74
2021/11/24 11:39:00;;;;;;;28.63;13.85;;;1.10;99.90;;;;;;5053780;28;20047;-73
2021/11/24 11:41:35;;;;;;;34.83;16.83;;;1.10;99.90;;;;;;5033683;28;20136;-73
2021/11/24 11:44:06;;;;;;;29.65;13.90;;;1.20;99.90;;;;;;5032354;28;20060;-73
2021/11/24 11:46:44;;;;;;;26.73;13.05;;;1.10;99.90;;;;;;5033470;28;20257;-73
2021/11/24 11:49:21;;;;;;;22.92;12.05;;;1.10;99.90;;;;;;5033226;28;20045;-73
2021/11/24 11:51:50;;;;;;;24.67;13.50;;;1.20;99.90;;;;;;5014644;28;20175;-73
2021/11/24 11:54:32;;;;;;;24.00;14.30;;;1.20;99.90;;;;;;5017070;28;20422;-74
2021/11/24 11:57:03;;;;;;;24.88;12.93;;;1.20;99.90;;;;;;5032270;28;20033;-74
2021/11/24 11:59:37;;;;;;;25.20;13.85;;;1.20;99.90;;;;;;5048175;28;20137;-73
2021/11/24 12:02:11;;;;;;;28.50;13.18;;;1.20;99.90;;;;;;5034879;28;20406;-73
2021/11/24 12:04:50;;;;;;;22.40;12.10;;;1.20;99.90;;;;;;5050656;28;20133;-73
2021/11/24 12:07:23;;;;;;;22.73;12.05;;;1.20;99.90;;;;;;5050701;28;20148;-73
2021/11/24 12:10:04;;;;;;;23.13;12.85;;;1.20;99.90;;;;;;5050690;28;20068;-73
2021/11/24 12:12:36;;;;;;;25.35;15.15;;;1.20;99.90;;;;;;5034748;28;20162;-73
2021/11/24 12:15:11;;;;;;;27.23;14.57;;;1.20;99.90;;;;;;5034644;28;20044;-74
2021/11/24 12:17:47;;;;;;;26.52;13.80;;;1.20;99.90;;;;;;5050755;28;20043;-73
2021/11/24 12:20:17;;;;;;;24.58;13.27;;;1.10;99.90;;;;;;5047617;28;20065;-73
2021/11/24 12:22:58;;;;;;;34.35;15.27;;;1.20;99.90;;;;;;5048212;28;20515;-73
2021/11/24 12:25:30;;;;;;;85.30;33.78;;;1.10;99.90;;;;;;5034130;28;20059;-74
2021/11/24 12:28:09;;;;;;;36.63;18.30;;;1.20;99.90;;;;;;5050398;28;20037;-74
2021/11/24 12:30:47;;;;;;;27.23;14.07;;;1.10;99.90;;;;;;5034923;28;20049;-73
2021/11/24 12:33:27;;;;;;;19.33;10.77;;;1.20;99.90;;;;;;5050396;28;20566;-74
2021/11/24 12:36:14;;;;;;;20.20;11.63;;;1.20;99.90;;;;;;5050957;28;20049;-74
2021/11/24 12:38:53;;;;;;;23.23;13.55;;;1.20;99.90;;;;;;5048644;28;20131;-74
2021/11/24 12:41:27;;;;;;;21.17;10.98;;;1.20;99.90;;;;;;5048877;28;20051;-74
2021/11/24 12:44:04;;;;;;;20.50;10.77;;;1.20;99.90;;;;;;5049009;28;20132;-74
2021/11/24 12:46:39;;;;;;;18.85;10.23;;;1.20;99.90;;;;;;5051589;28;20396;-74
2021/11/24 12:49:17;;;;;;;21.40;11.93;;;1.20;99.90;;;;;;5050481;28;20466;-72
2021/11/24 12:51:53;;;;;;;19.80;9.88;;;1.20;99.90;;;;;;5049473;28;20411;-73
2021/11/24 12:54:21;;;;;;;21.05;11.30;;;1.30;99.90;;;;;;5054359;28;20075;-72
2021/11/24 12:57:02;;;;;;;20.75;9.75;;;1.20;99.90;;;;;;5054145;28;20123;-72
2021/11/24 12:59:36;;;;;;;18.15;10.82;;;1.20;99.90;;;;;;5051956;28;20132;-73